Gilcrest, Colorado
Current Conditions -  °F | °C
As of 10:35 AM on Friday 19 Dec 2014 (Local Time) from KGXY Reporting Station
Clear Clear  
Wind Chill: 32°   Ceiling: Unl
Heat Index: 36°   Visibility: 8mi
Dew Point: 23°   Wind: 5mph
Humidity: 60%   Direction: 240°WSW
Pressure: 30.09"   Gusts: NA
Location:  40.28°N, 104.78°W
Report Text: KGXY 191735Z AUTO 24004KT 8SM CLR 02/M05 A3009 RMK AO1
Loading
Personal Weather Stations






























Interactive Weather Map New forecast layout! Learn more

10-Day Weather Forecast

Advertisements
Track Severe Weather on mobile